Time;durP1;ratioP1;P1;durP2;ratioP2;P2;SDS_P1;SDS_P2;PMS_P1;PMS_P2;Temp;Humidity;BMP_temperature;BMP_pressure;BME280_temperature;BME280_humidity;BME280_pressure;Samples;Min_cycle;Max_cycle;Signal;HPM_P1;HPM_P2
2024/01/29 00:00:25;;;;;;;4.57;2.97;;;;;;;-147.95;100.00;58458.38;4955429;28;20693;-85
2024/01/29 00:02:51;;;;;;;6.15;3.00;;;;;;;-147.95;100.00;58458.38;4970126;28;20093;-84
2024/01/29 00:05:16;;;;;;;5.85;3.10;;;;;;;-147.95;100.00;58458.38;4955753;28;20121;-85
2024/01/29 00:07:41;;;;;;;5.90;3.33;;;;;;;-147.95;100.00;58458.38;4940830;28;20062;-85
2024/01/29 00:10:07;;;;;;;5.20;2.97;;;;;;;-147.95;100.00;58458.38;4971559;28;20098;-85
2024/01/29 00:12:33;;;;;;;5.93;3.00;;;;;;;-147.95;100.00;58458.38;4960024;28;20039;-85
2024/01/29 00:15:00;;;;;;;6.25;3.08;;;;;;;-147.95;100.00;58458.38;4940938;28;20519;-85
2024/01/29 00:17:26;;;;;;;6.75;3.38;;;;;;;-147.95;100.00;58458.38;4952132;28;20043;-85
2024/01/29 00:19:55;;;;;;;7.72;3.10;;;;;;;-147.95;100.00;58458.38;4940635;28;20042;-85
2024/01/29 00:22:22;;;;;;;5.13;3.10;;;;;;;-147.95;100.00;58458.38;4965949;28;20497;-84
2024/01/29 00:24:47;;;;;;;5.72;3.00;;;;;;;-147.95;100.00;58458.38;4956349;28;20039;-84
2024/01/29 00:27:14;;;;;;;9.07;3.65;;;;;;;-147.95;100.00;58458.38;4952735;28;20042;-84
2024/01/29 00:29:39;;;;;;;5.32;3.78;;;;;;;-147.95;100.00;58458.38;4939155;28;20038;-85
2024/01/29 00:32:06;;;;;;;9.50;3.42;;;;;;;-147.95;100.00;58458.38;4956944;28;20093;-84
2024/01/29 00:34:32;;;;;;;5.40;3.65;;;;;;;-147.95;100.00;58458.38;4972037;28;20027;-84
2024/01/29 00:36:57;;;;;;;8.05;3.58;;;;;;;-147.95;100.00;58458.38;4954193;28;20547;-85
2024/01/29 00:39:22;;;;;;;6.68;3.50;;;;;;;-147.95;100.00;58458.38;4955863;28;20034;-85
2024/01/29 00:41:50;;;;;;;7.28;3.70;;;;;;;-147.95;100.00;58458.38;4967343;28;20057;-84
2024/01/29 00:44:17;;;;;;;7.18;3.03;;;;;;;-147.95;100.00;58458.38;4969665;28;20023;-85
2024/01/29 00:46:43;;;;;;;8.15;3.17;;;;;;;-147.95;100.00;58458.38;4953989;28;20035;-86
2024/01/29 00:49:09;;;;;;;4.72;3.30;;;;;;;-147.95;100.00;58458.38;4971163;28;20093;-85
2024/01/29 00:51:35;;;;;;;5.10;3.00;;;;;;;-147.95;100.00;58458.38;4957008;28;20035;-85
2024/01/29 00:54:02;;;;;;;5.22;3.40;;;;;;;-147.95;100.00;58458.38;4954787;28;20573;-85
2024/01/29 00:56:27;;;;;;;5.38;3.28;;;;;;;-147.95;100.00;58458.38;4971989;28;20035;-91
2024/01/29 00:58:53;;;;;;;4.78;2.90;;;;;;;-147.95;100.00;58458.38;4945883;28;20030;-91
2024/01/29 01:01:20;;;;;;;5.43;2.97;;;;;;;-147.95;100.00;58458.38;4942294;28;20038;-90
2024/01/29 01:03:46;;;;;;;7.00;2.80;;;;;;;-147.95;100.00;58458.38;4985236;28;20019;-91
2024/01/29 01:06:11;;;;;;;6.47;2.80;;;;;;;-147.95;100.00;58458.38;4971484;28;20055;-91
2024/01/29 01:08:39;;;;;;;5.55;3.17;;;;;;;-147.95;100.00;58458.38;4989990;28;20047;-91
2024/01/29 01:11:07;;;;;;;4.53;3.00;;;;;;;-147.95;100.00;58458.38;4993683;28;20039;-91
2024/01/29 01:13:33;;;;;;;3.72;2.95;;;;;;;-147.95;100.00;58458.38;4953838;28;20038;-91
2024/01/29 01:15:58;;;;;;;6.78;3.15;;;;;;;-147.95;100.00;58458.38;4945380;28;20142;-91
2024/01/29 01:18:25;;;;;;;6.18;2.95;;;;;;;-147.95;100.00;58458.38;4966962;28;20041;-91
2024/01/29 01:20:50;;;;;;;5.28;2.95;;;;;;;-147.95;100.00;58458.38;4968060;28;20034;-91
2024/01/29 01:23:16;;;;;;;5.10;3.25;;;;;;;-147.95;100.00;58458.38;4993197;28;20026;-91
2024/01/29 01:25:47;;;;;;;5.95;3.30;;;;;;;-147.95;100.00;58458.38;4972723;28;20039;-91
2024/01/29 01:28:12;;;;;;;5.07;3.20;;;;;;;-147.95;100.00;58458.38;4959427;28;20489;-92
2024/01/29 01:30:40;;;;;;;10.30;3.47;;;;;;;-147.95;100.00;58458.38;4943934;28;20062;-91
2024/01/29 01:33:07;;;;;;;3.45;2.70;;;;;;;-147.95;100.00;58458.38;4944026;28;20034;-91
2024/01/29 01:35:35;;;;;;;5.28;3.17;;;;;;;-147.95;100.00;58458.38;4949824;28;20043;-91
2024/01/29 01:38:03;;;;;;;5.20;3.00;;;;;;;-147.95;100.00;58458.38;4972959;28;20035;-94
2024/01/29 01:40:29;;;;;;;5.38;3.03;;;;;;;-147.95;100.00;58458.38;4945542;28;20102;-92
2024/01/29 01:42:55;;;;;;;6.10;3.25;;;;;;;-147.95;100.00;58458.38;4953738;28;20476;-92
2024/01/29 01:45:21;;;;;;;5.85;2.97;;;;;;;-147.95;100.00;58458.38;4959594;28;20042;-93
2024/01/29 01:47:46;;;;;;;6.35;3.30;;;;;;;-147.95;100.00;58458.38;4957855;28;20042;-92
2024/01/29 01:50:11;;;;;;;9.35;3.22;;;;;;;-147.95;100.00;58458.38;4942929;28;20050;-91
2024/01/29 01:52:38;;;;;;;6.30;2.90;;;;;;;-147.95;100.00;58458.38;4973886;28;20034;-91
2024/01/29 01:55:05;;;;;;;9.80;3.33;;;;;;;-147.95;100.00;58458.38;4950057;28;20036;-92
2024/01/29 01:57:30;;;;;;;6.00;2.95;;;;;;;-147.95;100.00;58458.38;4936557;28;20469;-91
2024/01/29 01:59:57;;;;;;;5.55;3.22;;;;;;;-147.95;100.00;58458.38;4996310;28;20123;-92
2024/01/29 02:02:23;;;;;;;7.53;3.50;;;;;;;-147.95;100.00;58458.38;4991799;28;20102;-91
2024/01/29 02:04:50;;;;;;;4.35;2.70;;;;;;;-147.95;100.00;58458.38;4961608;28;20041;-90
2024/01/29 02:07:15;;;;;;;5.15;3.15;;;;;;;-147.95;100.00;58458.38;4956086;28;20046;-90
2024/01/29 02:09:44;;;;;;;5.60;3.17;;;;;;;-147.95;100.00;58458.38;4967197;28;20493;-90
2024/01/29 02:12:11;;;;;;;5.32;3.42;;;;;;;-147.95;100.00;58458.38;4975461;28;20081;-90
2024/01/29 02:14:38;;;;;;;7.18;3.42;;;;;;;-147.95;100.00;58458.38;4943033;28;20118;-90
2024/01/29 02:17:04;;;;;;;5.10;3.60;;;;;;;-147.95;100.00;58458.38;4953490;28;20105;-90
2024/01/29 02:19:31;;;;;;;8.60;3.40;;;;;;;-147.95;100.00;58458.38;4972048;28;20053;-91
2024/01/29 02:21:57;;;;;;;6.32;3.53;;;;;;;-147.95;100.00;58458.38;4952979;28;20027;-91
2024/01/29 02:24:23;;;;;;;5.00;3.42;;;;;;;-147.95;100.00;58458.38;4940879;28;20031;-91
2024/01/29 02:26:49;;;;;;;5.68;3.50;;;;;;;-147.95;100.00;58458.38;4959171;28;20034;-90
2024/01/29 02:29:16;;;;;;;8.38;3.55;;;;;;;-147.95;100.00;58458.38;4957728;28;20031;-90
2024/01/29 02:31:42;;;;;;;4.35;3.22;;;;;;;-147.95;100.00;58458.38;4956856;28;20390;-91
2024/01/29 02:34:08;;;;;;;6.63;2.90;;;;;;;-147.95;100.00;58458.38;4938893;29;20106;-91
2024/01/29 02:36:33;;;;;;;5.75;3.60;;;;;;;-147.95;100.00;58458.38;4965884;28;20034;-91
2024/01/29 02:38:59;;;;;;;6.05;3.58;;;;;;;-147.95;100.00;58458.38;4939696;28;20037;-91
2024/01/29 02:41:24;;;;;;;6.13;3.40;;;;;;;-147.95;100.00;58458.38;4950473;28;20041;-90
2024/01/29 02:43:52;;;;;;;5.65;3.33;;;;;;;-147.95;100.00;58458.38;4942687;28;20030;-90
2024/01/29 02:46:18;;;;;;;6.63;3.50;;;;;;;-147.95;100.00;58458.38;4951065;28;20477;-91
2024/01/29 02:48:43;;;;;;;6.43;3.60;;;;;;;-147.95;100.00;58458.38;4958700;28;20043;-90
2024/01/29 02:51:10;;;;;;;4.35;3.60;;;;;;;-147.95;100.00;58458.38;4971432;28;20026;-89
2024/01/29 02:53:37;;;;;;;7.70;3.70;;;;;;;-147.95;100.00;58458.38;4950678;28;20045;-90
2024/01/29 02:56:03;;;;;;;7.03;3.42;;;;;;;-147.95;100.00;58458.38;4966639;28;20098;-90
2024/01/29 02:58:29;;;;;;;5.95;3.80;;;;;;;-147.95;100.00;58458.38;4942930;28;20493;-90
2024/01/29 03:00:56;;;;;;;6.80;3.97;;;;;;;-147.95;100.00;58458.38;4948272;28;20158;-90
2024/01/29 03:03:21;;;;;;;7.28;3.55;;;;;;;-147.95;100.00;58458.38;4958651;28;20038;-91
2024/01/29 03:05:49;;;;;;;8.27;4.00;;;;;;;-147.95;100.00;58458.38;4965291;28;20058;-91
2024/01/29 03:08:16;;;;;;;6.13;3.70;;;;;;;-147.95;100.00;58458.38;4951743;28;20050;-90
2024/01/29 03:10:41;;;;;;;5.93;3.65;;;;;;;-147.95;100.00;58458.38;4962257;28;20484;-91
2024/01/29 03:13:08;;;;;;;4.78;3.60;;;;;;;-147.95;100.00;58458.38;4959826;28;20041;-91
2024/01/29 03:15:35;;;;;;;4.88;3.38;;;;;;;-147.95;100.00;58458.38;4942975;28;20031;-90
2024/01/29 03:18:02;;;;;;;6.63;3.60;;;;;;;-147.95;100.00;58458.38;4956851;28;20022;-90
2024/01/29 03:20:27;;;;;;;7.65;4.10;;;;;;;-147.95;100.00;58458.38;4974087;28;20049;-90
2024/01/29 03:22:54;;;;;;;6.57;4.10;;;;;;;-147.95;100.00;58458.38;4958195;28;20496;-90
2024/01/29 03:25:20;;;;;;;8.20;3.67;;;;;;;-147.95;100.00;58458.38;4978015;28;20041;-90
2024/01/29 03:27:48;;;;;;;5.90;3.40;;;;;;;-147.95;100.00;58458.38;4962840;28;20042;-91
2024/01/29 03:30:14;;;;;;;14.30;4.47;;;;;;;-147.95;100.00;58458.38;4989000;28;20027;-90
2024/01/29 03:32:39;;;;;;;6.32;4.05;;;;;;;-147.95;100.00;58458.38;4965616;28;20062;-90
2024/01/29 03:35:08;;;;;;;9.35;3.53;;;;;;;-147.95;100.00;58458.38;4965635;28;20492;-90
2024/01/29 03:37:37;;;;;;;7.00;4.15;;;;;;;-147.95;100.00;58458.38;4984542;28;20425;-90
2024/01/29 03:40:07;;;;;;;8.13;4.30;;;;;;;-147.95;100.00;58458.38;4967250;28;20421;-92
2024/01/29 03:42:33;;;;;;;8.63;4.22;;;;;;;-147.95;100.00;58458.38;4948901;28;20273;-90
2024/01/29 03:44:58;;;;;;;6.35;3.75;;;;;;;-147.95;100.00;58458.38;4965818;28;20090;-91
2024/01/29 03:47:23;;;;;;;8.52;4.10;;;;;;;-147.95;100.00;58458.38;4950051;28;20049;-91
2024/01/29 03:49:49;;;;;;;11.02;4.05;;;;;;;-147.95;100.00;58458.38;4965637;28;20033;-91
2024/01/29 03:52:14;;;;;;;9.52;3.85;;;;;;;-147.95;100.00;58458.38;4945740;28;20037;-91
2024/01/29 03:54:41;;;;;;;5.90;4.25;;;;;;;-147.95;100.00;58458.38;4968214;28;20054;-91
2024/01/29 03:57:06;;;;;;;6.68;3.83;;;;;;;-147.95;100.00;58458.38;4979010;28;20030;-90
2024/01/29 03:59:35;;;;;;;8.38;4.50;;;;;;;-147.95;100.00;58458.38;4974310;28;20072;-90
2024/01/29 04:02:01;;;;;;;8.98;4.00;;;;;;;-147.95;100.00;58458.38;4961007;28;20038;-91
2024/01/29 04:04:27;;;;;;;7.95;4.13;;;;;;;-147.95;100.00;58458.38;4983165;28;20042;-90
2024/01/29 04:06:53;;;;;;;11.15;3.47;;;;;;;-147.95;100.00;58458.38;4974115;28;20054;-90
2024/01/29 04:09:20;;;;;;;6.47;4.00;;;;;;;-147.95;100.00;58458.38;4998957;28;20038;-90
2024/01/29 04:11:46;;;;;;;6.43;3.65;;;;;;;-147.95;100.00;58458.38;4960941;28;20038;-91
2024/01/29 04:14:12;;;;;;;6.05;4.20;;;;;;;-147.95;100.00;58458.38;4980839;28;20594;-92
2024/01/29 04:16:37;;;;;;;4.82;3.65;;;;;;;-147.95;100.00;58458.38;4963226;28;21011;-91
2024/01/29 04:19:06;;;;;;;8.15;4.78;;;;;;;-147.95;100.00;58458.38;4991079;28;20030;-92
2024/01/29 04:21:36;;;;;;;6.25;4.35;;;;;;;-147.95;100.00;58458.38;4968377;28;20049;-92
2024/01/29 04:24:02;;;;;;;4.75;3.80;;;;;;;-147.95;100.00;58458.38;5018014;28;20042;-92
2024/01/29 04:26:29;;;;;;;5.40;3.67;;;;;;;-147.95;100.00;58458.38;4961678;28;20035;-92
2024/01/29 04:28:56;;;;;;;5.43;3.67;;;;;;;-147.95;100.00;58458.38;5005305;28;20106;-92
2024/01/29 04:31:23;;;;;;;10.15;3.72;;;;;;;-147.95;100.00;58458.38;4960789;28;20035;-91
2024/01/29 04:33:50;;;;;;;9.15;3.90;;;;;;;-147.95;100.00;58458.38;4983360;28;20022;-91
2024/01/29 04:36:16;;;;;;;5.38;3.78;;;;;;;-147.95;100.00;58458.38;4991433;28;20064;-91
2024/01/29 04:38:43;;;;;;;7.50;4.00;;;;;;;-147.95;100.00;58458.38;4978549;28;20042;-91
2024/01/29 04:41:17;;;;;;;7.68;4.00;;;;;;;-147.95;100.00;58458.38;4965401;28;20038;-93
2024/01/29 04:43:42;;;;;;;8.50;4.15;;;;;;;-147.95;100.00;58458.38;4977570;28;20408;-92
2024/01/29 04:46:09;;;;;;;6.25;3.85;;;;;;;-147.95;100.00;58458.38;4963140;28;20033;-92
2024/01/29 04:48:35;;;;;;;9.43;3.88;;;;;;;-147.95;100.00;58458.38;4981182;28;20057;-92
2024/01/29 04:51:04;;;;;;;5.15;3.47;;;;;;;-147.95;100.00;58458.38;4958588;28;20034;-91
2024/01/29 04:53:32;;;;;;;6.40;3.58;;;;;;;-147.95;100.00;58458.38;4971629;28;20089;-92
2024/01/29 04:55:58;;;;;;;5.75;3.63;;;;;;;-147.95;100.00;58458.38;4947526;28;20039;-91
2024/01/29 04:58:23;;;;;;;9.27;3.70;;;;;;;-147.95;100.00;58458.38;4987382;28;20046;-92
2024/01/29 05:00:50;;;;;;;7.45;4.07;;;;;;;-147.95;100.00;58458.38;4955611;28;20077;-91
2024/01/29 05:03:15;;;;;;;9.88;3.90;;;;;;;-147.95;100.00;58458.38;4946290;28;20040;-90
2024/01/29 05:05:41;;;;;;;7.68;4.13;;;;;;;-147.95;100.00;58458.38;4963105;28;20462;-91
2024/01/29 05:08:06;;;;;;;6.38;3.47;;;;;;;-147.95;100.00;58458.38;4951441;28;20034;-89
2024/01/29 05:10:31;;;;;;;7.50;3.95;;;;;;;-147.95;100.00;58458.38;4960090;28;20039;-90
2024/01/29 05:12:57;;;;;;;7.03;3.47;;;;;;;-147.95;100.00;58458.38;4949136;28;20499;-90
2024/01/29 05:15:22;;;;;;;5.00;3.20;;;;;;;-147.95;100.00;58458.38;4964225;28;20105;-90
2024/01/29 05:17:48;;;;;;;5.78;3.85;;;;;;;-147.95;100.00;58458.38;4963842;28;20125;-90
2024/01/29 05:20:14;;;;;;;6.93;4.13;;;;;;;-147.95;100.00;58458.38;4980768;28;20038;-92
2024/01/29 05:22:42;;;;;;;6.00;4.15;;;;;;;-147.95;100.00;58458.38;4949479;28;20026;-91
2024/01/29 05:25:07;;;;;;;6.10;4.00;;;;;;;-147.95;100.00;58458.38;4980272;28;20042;-90
2024/01/29 05:27:33;;;;;;;5.88;3.78;;;;;;;-147.95;100.00;58458.38;4953426;28;20039;-93
2024/01/29 05:30:00;;;;;;;7.45;4.32;;;;;;;-147.95;100.00;58458.38;4975846;28;20034;-92
2024/01/29 05:32:26;;;;;;;9.57;5.07;;;;;;;-147.95;100.00;58458.38;4961377;28;20095;-89
2024/01/29 05:34:52;;;;;;;7.10;4.55;;;;;;;-147.95;100.00;58458.38;4963782;28;20049;-91
2024/01/29 05:37:17;;;;;;;7.30;4.35;;;;;;;-147.95;100.00;58458.38;4953000;28;20034;-90
2024/01/29 05:39:44;;;;;;;6.25;4.50;;;;;;;-147.95;100.00;58458.38;4974300;28;20026;-92
2024/01/29 05:42:09;;;;;;;8.52;4.40;;;;;;;-147.95;100.00;58458.38;4983151;28;20021;-94
2024/01/29 05:44:35;;;;;;;5.30;4.43;;;;;;;-147.95;100.00;58458.38;5002730;28;20061;-93
2024/01/29 05:47:01;;;;;;;6.28;3.80;;;;;;;-147.95;100.00;58458.38;4975808;28;20026;-88
2024/01/29 05:49:26;;;;;;;8.10;3.92;;;;;;;-147.95;100.00;58458.38;4976129;28;20041;-91
2024/01/29 05:51:51;;;;;;;6.78;3.83;;;;;;;-147.95;100.00;58458.38;4967428;28;20106;-91
2024/01/29 05:54:17;;;;;;;5.70;4.15;;;;;;;-147.95;100.00;58458.38;4965900;28;20041;-89
2024/01/29 05:56:44;;;;;;;4.95;3.75;;;;;;;-147.95;100.00;58458.38;4965748;28;20377;-88
2024/01/29 05:59:13;;;;;;;7.70;4.20;;;;;;;-147.95;100.00;58458.38;4969239;28;20034;-90
2024/01/29 06:01:39;;;;;;;7.53;4.40;;;;;;;-147.95;100.00;58458.38;4981581;28;20041;-88
2024/01/29 06:04:06;;;;;;;6.05;3.83;;;;;;;-147.95;100.00;58458.38;4969682;28;20042;-89
2024/01/29 06:06:31;;;;;;;7.13;3.50;;;;;;;-147.95;100.00;58458.38;4980424;28;20054;-90
2024/01/29 06:08:57;;;;;;;6.70;4.28;;;;;;;-147.95;100.00;58458.38;4944557;28;20027;-88
2024/01/29 06:11:22;;;;;;;5.60;4.00;;;;;;;-147.95;100.00;58458.38;4966855;28;20393;-88
2024/01/29 06:13:48;;;;;;;8.98;3.90;;;;;;;-147.95;100.00;58458.38;4971908;28;20018;-90
2024/01/29 06:16:25;;;;;;;5.57;4.05;;;;;;;-147.95;100.00;58458.38;4951162;28;20098;-89
2024/01/29 06:18:51;;;;;;;11.43;4.85;;;;;;;-147.95;100.00;58458.38;4981856;28;20026;-91
2024/01/29 06:21:17;;;;;;;8.70;4.32;;;;;;;-147.95;100.00;58458.38;4964557;28;20035;-90
2024/01/29 06:23:43;;;;;;;5.70;3.80;;;;;;;-147.95;100.00;58458.38;4986949;28;20038;-89
2024/01/29 06:26:09;;;;;;;7.35;3.78;;;;;;;-147.95;100.00;58458.38;4963110;28;20031;-88
2024/01/29 06:28:35;;;;;;;6.32;4.07;;;;;;;-147.95;100.00;58458.38;4959762;28;20042;-88
2024/01/29 06:31:00;;;;;;;5.88;3.60;;;;;;;-147.95;100.00;58458.38;4957144;28;20219;-89
2024/01/29 06:33:26;;;;;;;5.40;3.65;;;;;;;-147.95;100.00;58458.38;4944624;28;20066;-89
2024/01/29 06:35:53;;;;;;;5.13;3.65;;;;;;;-147.95;100.00;58458.38;4958144;28;20415;-89
2024/01/29 06:38:21;;;;;;;6.18;3.95;;;;;;;-147.95;100.00;58458.38;4947140;28;20027;-89
2024/01/29 06:40:47;;;;;;;7.22;4.15;;;;;;;-147.95;100.00;58458.38;4967340;28;20043;-89
2024/01/29 06:43:13;;;;;;;8.63;4.43;;;;;;;-147.95;100.00;58458.38;4944087;28;20126;-89
2024/01/29 06:45:38;;;;;;;5.75;3.92;;;;;;;-147.95;100.00;58458.38;4950839;28;20034;-89
2024/01/29 06:48:06;;;;;;;5.50;3.88;;;;;;;-147.95;100.00;58458.38;4970141;28;20049;-85
2024/01/29 06:50:33;;;;;;;4.45;3.65;;;;;;;-147.95;100.00;58458.38;4940084;28;20304;-85
2024/01/29 06:52:59;;;;;;;6.53;3.70;;;;;;;-147.95;100.00;58458.38;4938257;28;20057;-85
2024/01/29 06:55:25;;;;;;;6.85;4.25;;;;;;;-147.95;100.00;58458.38;4938184;28;20062;-87
2024/01/29 06:57:51;;;;;;;5.47;3.50;;;;;;;-147.95;100.00;58458.38;4939657;28;20039;-85
2024/01/29 07:00:17;;;;;;;4.88;3.67;;;;;;;-147.95;100.00;58458.38;4936117;28;20163;-86
2024/01/29 07:02:42;;;;;;;5.38;3.53;;;;;;;-147.95;100.00;58458.38;4936454;28;20039;-86
2024/01/29 07:05:08;;;;;;;6.47;3.50;;;;;;;-147.95;100.00;58458.38;4950283;28;20042;-84
2024/01/29 07:07:35;;;;;;;10.18;3.92;;;;;;;-147.95;100.00;58458.38;4968397;28;20070;-84
2024/01/29 07:10:00;;;;;;;5.53;3.55;;;;;;;-147.95;100.00;58458.38;4939999;28;20042;-84
2024/01/29 07:12:26;;;;;;;7.07;3.80;;;;;;;-147.95;100.00;58458.38;4955082;28;20395;-85
2024/01/29 07:14:53;;;;;;;7.70;3.53;;;;;;;-147.95;100.00;58458.38;4949793;28;20114;-85
2024/01/29 07:17:19;;;;;;;6.15;3.88;;;;;;;-147.95;100.00;58458.38;4938702;28;20034;-85
2024/01/29 07:19:47;;;;;;;5.45;4.00;;;;;;;-147.95;100.00;58458.38;4936996;28;20031;-84
2024/01/29 07:22:18;;;;;;;5.40;3.40;;;;;;;-147.95;100.00;58458.38;4938079;28;20034;-85
2024/01/29 07:24:49;;;;;;;6.00;3.80;;;;;;;-147.95;100.00;58458.38;4966573;28;20042;-85
2024/01/29 07:27:16;;;;;;;6.78;3.83;;;;;;;-147.95;100.00;58458.38;4968023;28;20124;-85
2024/01/29 07:29:41;;;;;;;8.35;3.90;;;;;;;-147.95;100.00;58458.38;4954099;28;20143;-85
2024/01/29 07:32:07;;;;;;;6.55;3.53;;;;;;;-147.95;100.00;58458.38;4968685;28;20038;-85
2024/01/29 07:34:32;;;;;;;8.60;4.00;;;;;;;-147.95;100.00;58458.38;4986140;28;20043;-84
2024/01/29 07:37:00;;;;;;;8.40;4.40;;;;;;;-147.95;100.00;58458.38;4966361;28;20041;-85
2024/01/29 07:39:25;;;;;;;6.28;4.00;;;;;;;-147.95;100.00;58458.38;4968917;28;20027;-85
2024/01/29 07:41:52;;;;;;;5.95;4.20;;;;;;;-147.95;100.00;58458.38;4941922;28;20511;-85
2024/01/29 07:44:19;;;;;;;7.47;3.90;;;;;;;-147.95;100.00;58458.38;4971932;28;20393;-86
2024/01/29 07:46:46;;;;;;;5.68;3.80;;;;;;;-147.95;100.00;58458.38;4976498;28;20046;-85
2024/01/29 07:49:12;;;;;;;8.32;4.47;;;;;;;-147.95;100.00;58458.38;4938484;28;20103;-86
2024/01/29 07:51:40;;;;;;;7.18;3.97;;;;;;;-147.95;100.00;58458.38;4939087;28;20075;-86
2024/01/29 07:54:10;;;;;;;7.13;4.75;;;;;;;-147.95;100.00;58458.38;4970030;28;20031;-87
2024/01/29 07:56:42;;;;;;;8.23;4.40;;;;;;;-147.95;100.00;58458.38;4965713;28;20511;-89
2024/01/29 07:59:08;;;;;;;7.95;4.55;;;;;;;-147.95;100.00;58458.38;4947202;28;20298;-92
2024/01/29 08:01:33;;;;;;;6.90;4.10;;;;;;;-147.95;100.00;58458.38;4964419;28;20057;-91
2024/01/29 08:04:01;;;;;;;7.93;4.32;;;;;;;-147.95;100.00;58458.38;4962441;28;20110;-89
2024/01/29 08:06:27;;;;;;;6.57;3.92;;;;;;;-147.95;100.00;58458.38;4970117;28;20129;-92
2024/01/29 08:08:52;;;;;;;7.13;4.00;;;;;;;-147.95;100.00;58458.38;4951849;28;20520;-94
2024/01/29 08:11:18;;;;;;;8.20;4.03;;;;;;;-147.95;100.00;58458.38;4954155;28;20117;-91
2024/01/29 08:13:44;;;;;;;9.45;3.97;;;;;;;-147.95;100.00;58458.38;4949561;28;20034;-89
2024/01/29 08:16:10;;;;;;;9.90;4.38;;;;;;;-147.95;100.00;58458.38;4946838;28;20104;-89
2024/01/29 08:18:38;;;;;;;5.88;3.80;;;;;;;-147.95;100.00;58458.38;4996377;28;20046;-93
2024/01/29 08:21:06;;;;;;;4.82;3.83;;;;;;;-147.95;100.00;58458.38;4954207;28;20035;-92
2024/01/29 08:23:34;;;;;;;7.05;4.75;;;;;;;-147.95;100.00;58458.38;4964734;28;20034;-92
2024/01/29 08:26:00;;;;;;;5.43;3.60;;;;;;;-147.95;100.00;58458.38;4965411;28;20037;-91
2024/01/29 08:28:26;;;;;;;6.15;3.97;;;;;;;-147.95;100.00;58458.38;4959701;28;20031;-94
2024/01/29 08:30:58;;;;;;;4.93;4.40;;;;;;;-147.95;100.00;58458.38;4967687;28;20046;-92
2024/01/29 08:33:25;;;;;;;;;;;;;;;-147.95;100.00;58458.38;4972414;28;20049;-92
2024/01/29 08:35:52;;;;;;;3.95;3.55;;;;;;;-147.95;100.00;58458.38;4988368;28;19926;-92
2024/01/29 08:38:18;;;;;;;8.05;4.18;;;;;;;-147.95;100.00;58458.38;4967382;28;20034;-92
2024/01/29 08:40:46;;;;;;;6.97;3.92;;;;;;;-147.95;100.00;58458.38;4978108;28;20029;-94
2024/01/29 08:43:11;;;;;;;5.15;4.18;;;;;;;-147.95;100.00;58458.38;4951260;28;20057;-92
2024/01/29 08:45:37;;;;;;;5.43;4.30;;;;;;;-147.95;100.00;58458.38;4950428;28;20042;-94
2024/01/29 08:48:04;;;;;;;5.47;4.05;;;;;;;-147.95;100.00;58458.38;5002665;28;20041;-94
2024/01/29 08:50:32;;;;;;;6.60;4.00;;;;;;;-147.95;100.00;58458.38;4993056;28;20033;-92
2024/01/29 08:52:58;;;;;;;6.95;4.00;;;;;;;-147.95;100.00;58458.38;4974734;28;20036;-93
2024/01/29 08:55:23;;;;;;;5.45;4.28;;;;;;;-147.95;100.00;58458.38;4944929;28;20049;-91
2024/01/29 08:57:50;;;;;;;6.65;4.10;;;;;;;-147.95;100.00;58458.38;4967690;28;20038;-95
2024/01/29 09:00:16;;;;;;;8.10;4.13;;;;;;;-147.95;100.00;58458.38;4985843;28;20476;-95
2024/01/29 09:02:44;;;;;;;6.50;4.43;;;;;;;-147.95;100.00;58458.38;4969374;28;20038;-94
2024/01/29 09:05:09;;;;;;;6.65;4.43;;;;;;;-147.95;100.00;58458.38;4999672;28;20026;-94
2024/01/29 09:07:35;;;;;;;6.78;4.15;;;;;;;-147.95;100.00;58458.38;4948217;28;20112;-85
2024/01/29 09:10:03;;;;;;;8.90;4.72;;;;;;;-147.95;100.00;58458.38;4940181;28;20027;-86
2024/01/29 09:12:30;;;;;;;10.02;4.75;;;;;;;-147.95;100.00;58458.38;4959186;28;21447;-86
2024/01/29 09:14:56;;;;;;;11.10;3.72;;;;;;;-147.95;100.00;58458.38;4959053;28;20037;-85
2024/01/29 09:17:22;;;;;;;8.63;4.40;;;;;;;-147.95;100.00;58458.38;4972647;28;20109;-86
2024/01/29 09:19:51;;;;;;;7.20;4.43;;;;;;;-147.95;100.00;58458.38;4973710;28;20100;-86
2024/01/29 09:22:17;;;;;;;7.10;3.63;;;;;;;-147.95;100.00;58458.38;4974797;28;20022;-87
2024/01/29 09:24:45;;;;;;;6.75;3.90;;;;;;;-147.95;100.00;58458.38;4943338;28;20045;-86
2024/01/29 09:27:11;;;;;;;10.23;4.20;;;;;;;-147.95;100.00;58458.38;4968276;28;20046;-86
2024/01/29 09:29:37;;;;;;;7.00;4.40;;;;;;;-147.95;100.00;58458.38;4956497;28;20094;-86
2024/01/29 09:32:03;;;;;;;9.27;4.25;;;;;;;-147.95;100.00;58458.38;4963787;28;20462;-86
2024/01/29 09:34:28;;;;;;;6.97;3.90;;;;;;;-147.95;100.00;58458.38;4935350;28;20049;-85
2024/01/29 09:36:56;;;;;;;4.45;3.95;;;;;;;-147.95;100.00;58458.38;4960374;28;20065;-88
2024/01/29 09:39:24;;;;;;;5.75;4.15;;;;;;;-147.95;100.00;58458.38;4987584;28;20100;-87
2024/01/29 09:41:50;;;;;;;10.68;4.53;;;;;;;-147.95;100.00;58458.38;4969217;28;20046;-86
2024/01/29 09:44:20;;;;;;;9.90;4.38;;;;;;;-147.95;100.00;58458.38;4951862;28;20038;-87
2024/01/29 09:46:50;;;;;;;5.88;4.00;;;;;;;-147.95;100.00;58458.38;4987524;28;20042;-86
2024/01/29 09:49:27;;;;;;;5.30;4.38;;;;;;;-147.95;100.00;58458.38;4966077;28;20121;-86
2024/01/29 09:51:54;;;;;;;9.15;4.40;;;;;;;-147.95;100.00;58458.38;4944097;28;20124;-86
2024/01/29 09:54:20;;;;;;;4.80;4.15;;;;;;;-147.95;100.00;58458.38;4971456;28;20653;-85
2024/01/29 09:56:45;;;;;;;6.82;4.20;;;;;;;-147.95;100.00;58458.38;4945458;28;20030;-86
2024/01/29 09:59:11;;;;;;;6.60;3.95;;;;;;;-147.95;100.00;58458.38;4949620;28;20029;-87
2024/01/29 10:01:42;;;;;;;4.65;3.85;;;;;;;-147.95;100.00;58458.38;4987078;28;20035;-87
2024/01/29 10:04:08;;;;;;;4.68;3.78;;;;;;;-147.95;100.00;58458.38;4976190;28;20484;-86
2024/01/29 10:06:34;;;;;;;7.65;4.70;;;;;;;-147.95;100.00;58458.38;4949535;28;20054;-86
2024/01/29 10:08:59;;;;;;;5.82;4.35;;;;;;;-147.95;100.00;58458.38;4956529;28;20038;-86
2024/01/29 10:11:24;;;;;;;6.22;4.35;;;;;;;-147.95;100.00;58458.38;4941875;28;20022;-86
2024/01/29 10:14:08;;;;;;;6.00;4.28;;;;;;;-147.95;100.00;58458.38;4969902;28;20500;-86
2024/01/29 10:16:37;;;;;;;6.82;3.95;;;;;;;-147.95;100.00;58458.38;4991023;28;20030;-86
2024/01/29 10:19:05;;;;;;;9.07;4.25;;;;;;;-147.95;100.00;58458.38;4973008;28;20381;-86
2024/01/29 10:21:38;;;;;;;8.85;4.55;;;;;;;-147.95;100.00;58458.38;4972698;28;20408;-86
2024/01/29 10:24:03;;;;;;;;;;;;;;;-147.95;100.00;58458.38;4971556;28;20037;-85
2024/01/29 10:26:30;;;;;;;7.07;4.47;;;;;;;-147.95;100.00;58458.38;4957801;28;20008;-85
2024/01/29 10:29:06;;;;;;;6.82;4.57;;;;;;;-147.95;100.00;58458.38;4956956;28;20046;-86
2024/01/29 10:31:34;;;;;;;8.52;4.38;;;;;;;-147.95;100.00;58458.38;4983216;28;20396;-86
2024/01/29 10:34:00;;;;;;;6.03;4.20;;;;;;;-147.95;100.00;58458.38;4972424;28;20129;-86
2024/01/29 10:36:26;;;;;;;5.95;4.65;;;;;;;-147.95;100.00;58458.38;4959479;28;20547;-86
2024/01/29 10:38:53;;;;;;;7.75;5.07;;;;;;;-147.95;100.00;58458.38;4944098;28;20039;-88
2024/01/29 10:41:23;;;;;;;11.90;4.45;;;;;;;-147.95;100.00;58458.38;4941737;28;20034;-87
2024/01/29 10:43:49;;;;;;;8.27;4.47;;;;;;;-147.95;100.00;58458.38;4945820;28;20559;-86
2024/01/29 10:46:23;;;;;;;8.02;4.90;;;;;;;-147.95;100.00;58458.38;4973953;28;20606;-86
2024/01/29 10:48:51;;;;;;;8.68;4.43;;;;;;;-147.95;100.00;58458.38;5011630;28;20038;-86
2024/01/29 10:51:17;;;;;;;6.88;4.60;;;;;;;-147.95;100.00;58458.38;5001012;28;20022;-86
2024/01/29 10:53:45;;;;;;;5.80;4.72;;;;;;;-147.95;100.00;58458.38;4978201;28;20088;-88
2024/01/29 10:56:11;;;;;;;7.30;4.25;;;;;;;-147.95;100.00;58458.38;4978162;28;20026;-86
2024/01/29 10:58:39;;;;;;;7.35;5.10;;;;;;;-147.95;100.00;58458.38;4963288;28;20038;-86
2024/01/29 11:01:10;;;;;;;8.32;4.40;;;;;;;-147.95;100.00;58458.38;4953916;28;20030;-85
2024/01/29 11:03:37;;;;;;;8.63;4.60;;;;;;;-147.95;100.00;58458.38;4948146;28;20041;-87
2024/01/29 11:06:13;;;;;;;11.95;4.90;;;;;;;-147.95;100.00;58458.38;4987899;28;20046;-87